ADDS METAR Data INFO
IDs: Format: Raw Decoded Include TAF

Data at: 0318 UTC 20 Oct 2017

ETSI 200220Z AUTO 09002KT 0100 // ////// 08/07 Q1015 ///